createdAt,value
2023-05-10T00:00:53.693Z,3.63
2023-05-10T00:05:59.330Z,3.78
2023-05-10T00:08:33.773Z,3.30
2023-05-10T00:11:06.622Z,3.33
2023-05-10T00:13:39.447Z,3.30
2023-05-10T00:16:13.999Z,3.25
2023-05-10T00:18:47.193Z,3.47
2023-05-10T00:21:20.099Z,3.78
2023-05-10T00:23:54.306Z,3.83
2023-05-10T00:26:27.197Z,3.30
2023-05-10T00:29:02.159Z,3.78
2023-05-10T00:34:07.580Z,3.27
2023-05-10T00:36:40.373Z,3.55
2023-05-10T00:39:14.944Z,4.05
2023-05-10T00:41:47.651Z,3.97
2023-05-10T00:44:20.673Z,4.18
2023-05-10T00:49:26.467Z,4.70
2023-05-10T00:51:59.400Z,4.85
2023-05-10T00:54:34.012Z,4.70
2023-05-10T00:57:06.808Z,4.30
2023-05-10T00:59:39.810Z,5.40
2023-05-10T01:04:45.778Z,5.05
2023-05-10T01:09:52.681Z,6.03
2023-05-10T01:12:26.287Z,5.50
2023-05-10T01:14:59.718Z,6.15
2023-05-10T01:17:32.907Z,4.95
2023-05-10T01:20:08.998Z,6.22
2023-05-10T01:22:59.464Z,5.03
2023-05-10T01:26:01.215Z,5.57
2023-05-10T01:28:55.951Z,5.78
2023-05-10T01:31:46.443Z,5.47
2023-05-10T01:34:25.653Z,5.28
2023-05-10T01:37:04.795Z,5.93
2023-05-10T01:39:46.615Z,5.60
2023-05-10T01:42:23.363Z,5.80
2023-05-10T01:45:02.193Z,6.07
2023-05-10T01:47:41.018Z,5.78
2023-05-10T01:50:21.245Z,6.10
2023-05-10T01:52:57.843Z,5.10
2023-05-10T01:55:34.173Z,6.35
2023-05-10T01:58:09.868Z,5.68
2023-05-10T02:00:45.646Z,5.82
2023-05-10T02:03:20.803Z,6.10
2023-05-10T02:05:56.538Z,5.43
2023-05-10T02:08:29.964Z,5.47
2023-05-10T02:11:06.719Z,4.82
2023-05-10T02:13:41.380Z,6.95
2023-05-10T02:16:16.156Z,7.45
2023-05-10T02:18:50.350Z,6.63
2023-05-10T02:21:26.301Z,5.80
2023-05-10T02:24:00.149Z,6.13
2023-05-10T02:26:37.552Z,6.07
2023-05-10T02:29:13.295Z,6.90
2023-05-10T02:31:47.352Z,6.22
2023-05-10T02:34:21.700Z,6.22
2023-05-10T02:36:56.385Z,6.80
2023-05-10T02:39:30.376Z,6.28
2023-05-10T02:42:04.336Z,7.05
2023-05-10T02:44:43.047Z,6.82
2023-05-10T02:47:15.820Z,6.50
2023-05-10T02:52:26.654Z,6.60
2023-05-10T02:55:04.806Z,7.43
2023-05-10T02:57:43.373Z,7.72
2023-05-10T03:00:16.670Z,7.57
2023-05-10T03:02:49.645Z,7.10
2023-05-10T03:05:23.401Z,7.97
2023-05-10T03:07:57.774Z,8.20
2023-05-10T03:10:32.850Z,7.38
2023-05-10T03:13:14.445Z,7.72
2023-05-10T03:15:57.697Z,8.18
2023-05-10T03:21:06.979Z,8.98
2023-05-10T03:23:45.215Z,7.18
2023-05-10T03:26:26.534Z,7.82
2023-05-10T03:29:07.130Z,7.55
2023-05-10T03:31:40.595Z,8.48
2023-05-10T03:34:13.422Z,7.75
2023-05-10T03:36:46.271Z,8.18
2023-05-10T03:39:23.583Z,8.05
2023-05-10T03:42:00.316Z,8.90
2023-05-10T03:44:34.300Z,7.68
2023-05-10T03:47:07.333Z,8.75
2023-05-10T03:49:40.122Z,8.70
2023-05-10T03:52:13.011Z,9.30
2023-05-10T03:57:19.974Z,8.73
2023-05-10T03:59:52.730Z,8.05
2023-05-10T04:02:25.741Z,7.60
2023-05-10T04:04:59.295Z,8.90
2023-05-10T04:07:32.133Z,7.90
2023-05-10T04:10:07.497Z,7.85
2023-05-10T04:12:40.203Z,7.25
2023-05-10T04:15:12.938Z,7.20
2023-05-10T04:17:46.121Z,7.55
2023-05-10T04:20:19.444Z,7.32
2023-05-10T04:22:52.225Z,7.00
2023-05-10T04:25:26.361Z,7.50
2023-05-10T04:27:59.068Z,6.88
2023-05-10T04:30:31.766Z,5.90
2023-05-10T04:33:05.068Z,6.25
2023-05-10T04:35:37.847Z,5.70
2023-05-10T04:38:10.510Z,6.35
2023-05-10T04:40:44.528Z,6.45
2023-05-10T04:43:17.230Z,7.07
2023-05-10T04:45:51.244Z,6.78
2023-05-10T04:48:24.079Z,6.30
2023-05-10T04:50:57.409Z,6.30
2023-05-10T04:53:30.210Z,6.78
2023-05-10T04:56:04.497Z,5.80
2023-05-10T04:58:37.171Z,5.53
2023-05-10T05:01:11.475Z,5.72
2023-05-10T05:03:44.556Z,6.18
2023-05-10T05:06:17.380Z,5.47
2023-05-10T05:08:51.165Z,4.80
2023-05-10T05:11:26.378Z,5.18
2023-05-10T05:14:00.237Z,5.10
2023-05-10T05:16:33.342Z,5.13
2023-05-10T05:21:39.187Z,4.95
2023-05-10T05:24:13.699Z,4.90
2023-05-10T05:26:48.120Z,4.75
2023-05-10T05:29:21.032Z,4.18
2023-05-10T05:31:55.470Z,3.78
2023-05-10T05:34:28.749Z,4.22
2023-05-10T05:37:01.645Z,4.05
2023-05-10T05:42:08.531Z,3.70
2023-05-10T05:44:41.754Z,4.50
2023-05-10T05:47:14.652Z,3.67
2023-05-10T05:52:20.385Z,3.50
2023-05-10T05:54:53.129Z,3.30
2023-05-10T05:57:27.632Z,3.65
2023-05-10T06:00:00.593Z,4.10
2023-05-10T06:05:07.942Z,3.53
2023-05-10T06:07:43.049Z,3.38
2023-05-10T06:10:15.911Z,3.38
2023-05-10T06:12:50.051Z,3.17
2023-05-10T06:15:22.898Z,3.85
2023-05-10T06:17:55.868Z,3.10
2023-05-10T06:23:01.553Z,3.28
2023-05-10T06:28:08.330Z,2.83
2023-05-10T06:30:41.261Z,2.90
2023-05-10T06:35:46.685Z,2.83
2023-05-10T06:38:19.359Z,3.20
2023-05-10T06:40:52.463Z,2.83
2023-05-10T06:43:27.300Z,2.10
2023-05-10T06:46:00.279Z,2.92
2023-05-10T06:51:06.057Z,2.38
2023-05-10T06:56:11.398Z,2.38
2023-05-10T06:58:45.481Z,3.00
2023-05-10T07:01:18.559Z,3.05
2023-05-10T07:03:51.595Z,3.30
2023-05-10T07:06:33.404Z,3.53
2023-05-10T07:09:06.841Z,3.03
2023-05-10T07:11:39.603Z,3.75
2023-05-10T07:14:13.807Z,3.58
2023-05-10T07:16:47.054Z,3.58
2023-05-10T07:19:20.510Z,3.17
2023-05-10T07:21:53.825Z,3.08
2023-05-10T07:24:26.588Z,3.53
2023-05-10T07:26:59.302Z,4.03
2023-05-10T07:29:33.391Z,3.40
2023-05-10T07:32:07.035Z,3.10
2023-05-10T07:34:39.816Z,3.15
2023-05-10T07:37:12.519Z,3.30
2023-05-10T07:39:45.328Z,3.08
2023-05-10T07:42:18.128Z,3.40
2023-05-10T07:44:52.230Z,2.88
2023-05-10T07:47:25.473Z,3.13
2023-05-10T07:49:58.300Z,2.70
2023-05-10T07:52:31.029Z,2.70
2023-05-10T07:55:04.101Z,2.60
2023-05-10T08:00:15.172Z,3.25
2023-05-10T08:02:48.485Z,3.15
2023-05-10T08:05:21.360Z,3.42
2023-05-10T08:07:54.111Z,3.22
2023-05-10T08:10:27.530Z,3.50
2023-05-10T08:13:00.416Z,2.70
2023-05-10T08:18:07.302Z,3.15
2023-05-10T08:20:40.020Z,3.10
2023-05-10T08:23:14.503Z,3.08
2023-05-10T08:25:47.610Z,2.95
2023-05-10T08:28:20.427Z,3.28
2023-05-10T08:30:54.703Z,3.47
2023-05-10T08:33:27.492Z,3.38
2023-05-10T08:36:00.228Z,2.95
2023-05-10T08:41:07.362Z,3.07
2023-05-10T08:43:42.517Z,3.17
2023-05-10T08:46:18.737Z,3.10
2023-05-10T08:48:52.723Z,3.08
2023-05-10T08:51:28.654Z,2.53
2023-05-10T08:54:02.169Z,3.35
2023-05-10T08:56:35.283Z,2.85
2023-05-10T08:59:08.060Z,3.30
2023-05-10T09:01:45.043Z,3.05
2023-05-10T09:04:17.892Z,2.85
2023-05-10T09:09:23.828Z,2.93
2023-05-10T09:11:57.147Z,2.65
2023-05-10T09:14:29.985Z,2.95
2023-05-10T09:19:37.216Z,3.30
2023-05-10T09:22:10.638Z,3.72
2023-05-10T09:24:46.375Z,4.10
2023-05-10T09:27:19.262Z,3.67
2023-05-10T09:29:55.334Z,3.88
2023-05-10T09:32:40.814Z,4.13
2023-05-10T09:35:15.695Z,3.28
2023-05-10T09:37:50.193Z,3.30
2023-05-10T09:40:25.082Z,3.10
2023-05-10T09:43:00.011Z,3.83
2023-05-10T09:45:37.755Z,2.90
2023-05-10T09:48:12.713Z,3.22
2023-05-10T09:50:45.590Z,3.28
2023-05-10T09:55:52.164Z,2.75
2023-05-10T09:58:24.934Z,3.67
2023-05-10T10:00:57.882Z,3.30
2023-05-10T10:06:06.764Z,2.80
2023-05-10T10:08:40.761Z,3.38
2023-05-10T10:13:46.422Z,3.40
2023-05-10T10:16:19.257Z,3.40
2023-05-10T10:21:26.818Z,3.28
2023-05-10T10:23:59.584Z,3.33
2023-05-10T10:26:32.621Z,3.78
2023-05-10T10:29:18.174Z,3.78
2023-05-10T10:32:01.831Z,4.03
2023-05-10T10:34:36.619Z,3.60
2023-05-10T10:37:09.419Z,3.95
2023-05-10T10:39:42.217Z,3.80
2023-05-10T10:42:14.900Z,3.80
2023-05-10T10:44:47.808Z,3.67
2023-05-10T10:50:08.600Z,3.20
2023-05-10T10:52:42.539Z,3.40
2023-05-10T10:55:19.133Z,3.88
2023-05-10T10:57:54.481Z,3.30
2023-05-10T11:00:29.918Z,3.20
2023-05-10T11:03:07.599Z,3.63
2023-05-10T11:05:43.472Z,3.50
2023-05-10T11:08:19.050Z,3.72
2023-05-10T11:11:04.399Z,3.92
2023-05-10T11:13:41.169Z,4.47
2023-05-10T11:16:19.686Z,4.05
2023-05-10T11:18:59.421Z,4.28
2023-05-10T11:21:35.173Z,3.70
2023-05-10T11:24:15.928Z,5.13
2023-05-10T11:26:52.408Z,4.32
2023-05-10T11:29:27.277Z,3.90
2023-05-10T11:32:09.473Z,4.78
2023-05-10T11:34:42.617Z,4.57
2023-05-10T11:37:16.694Z,4.28
2023-05-10T11:39:49.734Z,4.95
2023-05-10T11:42:22.950Z,5.15
2023-05-10T11:44:55.903Z,4.78
2023-05-10T11:50:02.014Z,4.80
2023-05-10T11:52:39.204Z,5.82
2023-05-10T11:55:12.145Z,5.70
2023-05-10T12:00:20.038Z,4.70
2023-05-10T12:02:53.198Z,5.30
2023-05-10T12:08:14.735Z,4.53
2023-05-10T12:10:47.461Z,4.10
2023-05-10T12:13:22.326Z,4.45
2023-05-10T12:15:55.047Z,4.82
2023-05-10T12:18:27.975Z,4.30
2023-05-10T12:23:39.666Z,4.28
2023-05-10T12:26:12.674Z,4.30
2023-05-10T12:28:45.513Z,4.68
2023-05-10T12:31:21.670Z,4.05
2023-05-10T12:33:54.649Z,4.57
2023-05-10T12:36:27.438Z,4.57
2023-05-10T12:39:06.750Z,5.60
2023-05-10T12:41:42.151Z,4.72
2023-05-10T12:44:16.592Z,4.60
2023-05-10T12:46:49.460Z,3.97
2023-05-10T12:51:55.612Z,4.63
2023-05-10T12:54:29.841Z,4.65
2023-05-10T12:57:02.653Z,5.18
2023-05-10T12:59:37.461Z,4.57
2023-05-10T13:02:11.799Z,4.20
2023-05-10T13:04:44.818Z,4.25
2023-05-10T13:07:17.742Z,4.60
2023-05-10T13:12:24.480Z,4.85
2023-05-10T13:14:57.522Z,5.10
2023-05-10T13:20:07.384Z,4.05
2023-05-10T13:22:40.847Z,4.25
2023-05-10T13:25:15.528Z,4.20
2023-05-10T13:27:49.215Z,4.22
2023-05-10T13:30:22.070Z,4.63
2023-05-10T13:32:55.099Z,4.70
2023-05-10T13:35:27.989Z,4.60
2023-05-10T13:38:00.881Z,4.95
2023-05-10T13:43:08.036Z,4.55
2023-05-10T13:45:40.890Z,5.05
2023-05-10T13:48:13.607Z,4.68
2023-05-10T13:50:47.094Z,5.07
2023-05-10T13:53:20.335Z,4.70
2023-05-10T13:55:54.665Z,5.22
2023-05-10T13:58:27.740Z,5.18
2023-05-10T14:01:00.815Z,4.25
2023-05-10T14:03:34.288Z,5.32
2023-05-10T14:06:08.337Z,4.60
2023-05-10T14:08:41.293Z,5.15
2023-05-10T14:13:48.215Z,5.63
2023-05-10T14:18:56.725Z,4.43
2023-05-10T14:21:30.599Z,4.53
2023-05-10T14:24:03.506Z,4.25
2023-05-10T14:26:40.609Z,5.35
2023-05-10T14:29:13.648Z,5.05
2023-05-10T14:31:46.617Z,5.65
2023-05-10T14:36:55.329Z,4.22
2023-05-10T14:39:30.617Z,4.38
2023-05-10T14:42:08.990Z,3.92
2023-05-10T14:44:41.988Z,4.00
2023-05-10T14:47:15.384Z,3.78
2023-05-10T14:49:48.497Z,3.40
2023-05-10T14:52:21.540Z,3.60
2023-05-10T14:54:54.589Z,3.20
2023-05-10T14:57:30.561Z,3.00
2023-05-10T15:00:03.492Z,2.50
2023-05-10T15:02:37.030Z,3.00
2023-05-10T15:05:10.939Z,2.95
2023-05-10T15:07:44.857Z,2.88
2023-05-10T15:10:18.032Z,2.35
2023-05-10T15:12:55.068Z,3.10
2023-05-10T15:15:28.285Z,2.50
2023-05-10T15:18:01.227Z,2.33
2023-05-10T15:23:06.736Z,3.58
2023-05-10T15:25:40.527Z,2.85
2023-05-10T15:28:14.673Z,2.95
2023-05-10T15:30:47.419Z,2.67
2023-05-10T15:33:20.476Z,2.72
2023-05-10T15:35:54.585Z,3.03
2023-05-10T15:38:27.487Z,3.20
2023-05-10T15:43:38.753Z,3.42
2023-05-10T15:46:11.723Z,4.00
2023-05-10T15:48:44.942Z,3.40
2023-05-10T15:54:05.374Z,4.10
2023-05-10T15:56:39.425Z,4.18
2023-05-10T15:59:13.691Z,3.92
2023-05-10T16:01:46.541Z,3.50
2023-05-10T16:06:52.202Z,3.22
2023-05-10T16:11:57.919Z,3.23
2023-05-10T16:14:33.788Z,2.70
2023-05-10T16:17:06.762Z,3.03
2023-05-10T16:19:41.039Z,3.10
2023-05-10T16:22:16.452Z,2.83
2023-05-10T16:24:49.379Z,3.88
2023-05-10T16:29:56.346Z,3.53
2023-05-10T16:32:29.355Z,4.30
2023-05-10T16:35:02.328Z,4.50
2023-05-10T16:40:10.428Z,3.40
2023-05-10T16:42:43.380Z,3.53
2023-05-10T16:45:18.483Z,3.70
2023-05-10T16:47:51.649Z,4.30
2023-05-10T16:50:25.960Z,4.13
2023-05-10T16:52:58.801Z,4.32
2023-05-10T16:55:31.675Z,3.53
2023-05-10T17:00:42.181Z,4.00
2023-05-10T17:03:15.338Z,3.30
2023-05-10T17:05:48.606Z,3.50
2023-05-10T17:08:23.215Z,3.35
2023-05-10T17:11:02.373Z,2.60
2023-05-10T17:13:35.198Z,2.83
2023-05-10T17:18:43.326Z,3.45
2023-05-10T17:21:16.932Z,3.15
2023-05-10T17:23:51.954Z,2.78
2023-05-10T17:26:25.028Z,3.25
2023-05-10T17:28:58.210Z,3.08
2023-05-10T17:31:34.900Z,3.28
2023-05-10T17:34:07.835Z,2.88
2023-05-10T17:39:13.527Z,3.17
2023-05-10T17:41:47.477Z,3.38
2023-05-10T17:44:20.670Z,2.83
2023-05-10T17:46:55.058Z,2.83
2023-05-10T17:49:29.095Z,2.40
2023-05-10T17:52:02.210Z,3.55
2023-05-10T17:54:35.136Z,3.17
2023-05-10T17:59:41.131Z,3.83
2023-05-10T18:02:15.721Z,3.03
2023-05-10T18:04:49.434Z,2.47
2023-05-10T18:07:23.775Z,2.60
2023-05-10T18:09:56.787Z,2.20
2023-05-10T18:12:29.520Z,2.00
2023-05-10T18:15:02.280Z,2.10
2023-05-10T18:17:36.937Z,2.10
2023-05-10T18:20:10.910Z,1.98
2023-05-10T18:22:44.074Z,2.03
2023-05-10T18:25:17.616Z,2.53
2023-05-10T18:27:52.048Z,1.95
2023-05-10T18:30:29.644Z,2.20
2023-05-10T18:33:03.927Z,2.65
2023-05-10T18:35:36.764Z,2.60
2023-05-10T18:40:43.351Z,1.92
2023-05-10T18:43:18.858Z,2.13
2023-05-10T18:45:52.630Z,2.08
2023-05-10T18:48:31.191Z,2.38
2023-05-10T18:51:07.807Z,2.10
2023-05-10T18:53:40.769Z,1.75
2023-05-10T18:56:13.916Z,1.83
2023-05-10T19:01:19.623Z,2.22
2023-05-10T19:06:29.270Z,2.20
2023-05-10T19:11:34.891Z,2.40
2023-05-10T19:14:07.847Z,2.03
2023-05-10T19:19:16.193Z,2.33
2023-05-10T19:21:49.233Z,2.80
2023-05-10T19:24:25.931Z,2.70
2023-05-10T19:26:59.029Z,2.70
2023-05-10T19:29:32.230Z,2.95
2023-05-10T19:32:05.816Z,2.70
2023-05-10T19:34:40.308Z,3.13
2023-05-10T19:37:13.122Z,2.80
2023-05-10T19:42:19.681Z,3.63
2023-05-10T19:44:53.714Z,3.30
2023-05-10T19:47:26.558Z,4.35
2023-05-10T19:52:34.175Z,3.65
2023-05-10T19:55:08.746Z,4.57
2023-05-10T19:57:41.961Z,4.72
2023-05-10T20:00:15.552Z,4.93
2023-05-10T20:02:48.492Z,5.50
2023-05-10T20:05:22.937Z,5.47
2023-05-10T20:07:55.823Z,5.88
2023-05-10T20:13:01.454Z,5.25
2023-05-10T20:15:34.310Z,6.15
2023-05-10T20:18:07.559Z,5.63
2023-05-10T20:20:42.132Z,5.90
2023-05-10T20:23:15.257Z,5.53
2023-05-10T20:25:48.233Z,5.28
2023-05-10T20:30:59.817Z,4.70
2023-05-10T20:33:33.156Z,5.00
2023-05-10T20:36:09.463Z,4.55
2023-05-10T20:38:42.395Z,4.20
2023-05-10T20:43:47.737Z,4.10
2023-05-10T20:46:20.488Z,4.18
2023-05-10T20:48:53.324Z,4.32
2023-05-10T20:51:28.941Z,4.50
2023-05-10T20:54:04.636Z,5.97
2023-05-10T20:56:37.328Z,5.28
2023-05-10T20:59:09.965Z,5.57
2023-05-10T21:01:42.758Z,5.00
2023-05-10T21:04:15.444Z,5.35
2023-05-10T21:06:49.482Z,4.68
2023-05-10T21:09:22.314Z,4.40
2023-05-10T21:11:55.159Z,4.25
2023-05-10T21:14:28.051Z,4.38
2023-05-10T21:19:33.447Z,4.87
2023-05-10T21:22:07.591Z,4.22
2023-05-10T21:24:40.909Z,3.60
2023-05-10T21:27:13.661Z,4.00
2023-05-10T21:29:46.576Z,3.92
2023-05-10T21:32:19.504Z,3.55
2023-05-10T21:37:26.358Z,2.92
2023-05-10T21:39:59.156Z,3.38
2023-05-10T21:42:32.447Z,2.85
2023-05-10T21:45:06.076Z,2.80
2023-05-10T21:47:38.885Z,2.78
2023-05-10T21:50:12.666Z,2.72
2023-05-10T21:52:46.738Z,2.80
2023-05-10T21:55:19.593Z,2.55
2023-05-10T21:57:52.490Z,2.90
2023-05-10T22:00:25.478Z,2.95
2023-05-10T22:02:58.335Z,3.10
2023-05-10T22:08:05.833Z,2.65
2023-05-10T22:10:38.542Z,2.70
2023-05-10T22:13:11.324Z,3.47
2023-05-10T22:15:44.244Z,2.97
2023-05-10T22:20:49.980Z,2.70
2023-05-10T22:26:00.978Z,2.38
2023-05-10T22:28:33.746Z,2.20
2023-05-10T22:31:10.527Z,2.45
2023-05-10T22:33:43.352Z,2.33
2023-05-10T22:36:16.178Z,2.40
2023-05-10T22:38:50.195Z,2.35
2023-05-10T22:41:23.433Z,2.90
2023-05-10T22:43:56.498Z,2.95
2023-05-10T22:46:29.804Z,2.20
2023-05-10T22:49:02.597Z,2.33
2023-05-10T22:51:35.710Z,2.80
2023-05-10T22:54:09.733Z,2.67
2023-05-10T22:56:42.643Z,2.75
2023-05-10T22:59:15.380Z,3.20
2023-05-10T23:01:48.999Z,2.20
2023-05-10T23:04:21.825Z,2.60
2023-05-10T23:06:54.608Z,2.92
2023-05-10T23:09:28.570Z,2.95
2023-05-10T23:12:01.334Z,3.42
2023-05-10T23:14:34.040Z,2.50
2023-05-10T23:17:06.744Z,2.40
2023-05-10T23:19:39.394Z,2.47
2023-05-10T23:22:12.096Z,2.50
2023-05-10T23:24:46.188Z,2.90
2023-05-10T23:27:18.826Z,2.47
2023-05-10T23:29:55.451Z,2.80
2023-05-10T23:32:28.178Z,2.60
2023-05-10T23:35:01.121Z,2.72
2023-05-10T23:37:33.849Z,2.40
2023-05-10T23:40:09.445Z,2.90
2023-05-10T23:42:42.199Z,2.72
2023-05-10T23:45:14.882Z,2.97
2023-05-10T23:47:48.111Z,3.53
2023-05-10T23:50:23.456Z,2.75
2023-05-10T23:52:56.173Z,3.42
2023-05-10T23:55:30.165Z,3.17
2023-05-10T23:58:02.927Z,2.70
